createdAt,value
2022-11-24T00:01:45.438Z,13.98
2022-11-24T00:04:16.701Z,13.80
2022-11-24T00:06:47.511Z,13.15
2022-11-24T00:09:20.663Z,13.73
2022-11-24T00:11:55.821Z,13.57
2022-11-24T00:17:35.536Z,13.05
2022-11-24T00:20:21.013Z,13.82
2022-11-24T00:22:49.234Z,12.93
2022-11-24T00:25:24.060Z,14.80
2022-11-24T00:28:23.387Z,13.98
2022-11-24T00:31:06.617Z,14.55
2022-11-24T00:33:37.629Z,13.80
2022-11-24T00:36:09.479Z,13.75
2022-11-24T00:38:37.650Z,14.18
2022-11-24T00:41:05.713Z,12.80
2022-11-24T00:43:33.597Z,13.70
2022-11-24T00:46:01.911Z,14.50
2022-11-24T00:48:31.668Z,12.90
2022-11-24T00:51:06.602Z,14.20
2022-11-24T00:53:35.350Z,11.77
2022-11-24T00:56:04.404Z,14.38
2022-11-24T00:58:32.935Z,13.20
2022-11-24T01:01:12.178Z,13.88
2022-11-24T01:03:40.599Z,13.93
2022-11-24T01:06:12.367Z,12.77
2022-11-24T01:08:40.932Z,15.57
2022-11-24T01:11:08.776Z,14.25
2022-11-24T01:13:36.708Z,11.00
2022-11-24T01:16:04.938Z,13.10
2022-11-24T01:18:33.441Z,10.63
2022-11-24T01:21:09.635Z,13.98
2022-11-24T01:23:38.387Z,13.32
2022-11-24T01:26:10.941Z,12.00
2022-11-24T01:28:44.867Z,12.68
2022-11-24T01:31:17.075Z,11.48
2022-11-24T01:33:45.146Z,14.07
2022-11-24T01:36:14.123Z,11.95
2022-11-24T01:38:42.052Z,13.18
2022-11-24T01:41:24.520Z,12.77
2022-11-24T01:43:53.871Z,14.50
2022-11-24T01:46:37.422Z,13.38
2022-11-24T01:49:31.703Z,12.77
2022-11-24T01:52:04.564Z,11.70
2022-11-24T01:54:36.973Z,13.13
2022-11-24T01:57:17.541Z,11.27
2022-11-24T01:59:48.769Z,12.63
2022-11-24T02:02:21.761Z,13.60
2022-11-24T02:04:51.356Z,11.65
2022-11-24T02:07:19.495Z,10.52
2022-11-24T02:09:55.078Z,10.68
2022-11-24T02:12:25.358Z,11.55
2022-11-24T02:14:54.902Z,10.98
2022-11-24T02:17:23.245Z,11.68
2022-11-24T02:20:01.786Z,11.20
2022-11-24T02:22:51.522Z,11.90
2022-11-24T02:25:43.892Z,13.05
2022-11-24T02:28:16.640Z,10.65
2022-11-24T02:30:45.077Z,12.38
2022-11-24T02:33:13.805Z,11.45
2022-11-24T02:35:41.786Z,11.57
2022-11-24T02:38:14.032Z,12.82
2022-11-24T02:40:49.537Z,13.00
2022-11-24T02:47:44.449Z,11.05
2022-11-24T02:50:12.453Z,11.88
2022-11-24T02:52:40.340Z,12.35
2022-11-24T02:55:08.569Z,13.27
2022-11-24T02:57:36.472Z,11.88
2022-11-24T03:00:05.175Z,13.95
2022-11-24T03:02:33.648Z,12.98
2022-11-24T03:05:02.135Z,11.77
2022-11-24T03:07:30.505Z,11.32
2022-11-24T03:09:58.798Z,11.93
2022-11-24T03:12:26.743Z,10.30
2022-11-24T03:14:54.535Z,11.23
2022-11-24T03:17:23.197Z,12.95
2022-11-24T03:19:50.983Z,13.88
2022-11-24T03:22:18.782Z,11.50
2022-11-24T03:24:46.753Z,11.30
2022-11-24T03:27:15.052Z,11.02
2022-11-24T03:29:47.310Z,11.18
2022-11-24T03:32:16.764Z,10.75
2022-11-24T03:34:44.716Z,12.27
2022-11-24T03:37:14.686Z,11.82
2022-11-24T03:39:43.318Z,11.82
2022-11-24T03:42:13.784Z,12.30
2022-11-24T03:44:42.485Z,12.38
2022-11-24T03:47:13.054Z,14.10
2022-11-24T03:49:44.046Z,13.05
2022-11-24T03:52:12.346Z,13.63
2022-11-24T03:54:45.619Z,12.85
2022-11-24T03:57:13.883Z,13.32
2022-11-24T03:59:42.508Z,13.35
2022-11-24T04:02:10.539Z,12.10
2022-11-24T04:04:38.484Z,13.07
2022-11-24T04:07:06.356Z,12.05
2022-11-24T04:09:34.708Z,12.73
2022-11-24T04:12:20.980Z,11.38
2022-11-24T04:14:49.405Z,12.07
2022-11-24T04:17:17.273Z,12.15
2022-11-24T04:19:45.151Z,12.30
2022-11-24T04:22:13.001Z,11.68
2022-11-24T04:24:40.789Z,13.43
2022-11-24T04:27:08.634Z,13.10
2022-11-24T04:29:36.550Z,12.10
2022-11-24T04:32:05.217Z,12.52
2022-11-24T04:34:33.213Z,11.50
2022-11-24T04:37:01.811Z,12.05
2022-11-24T04:39:29.882Z,12.88
2022-11-24T04:41:58.867Z,14.40
2022-11-24T04:44:27.986Z,11.88
2022-11-24T04:46:56.613Z,12.50
2022-11-24T04:49:27.452Z,12.30
2022-11-24T04:51:55.472Z,11.88
2022-11-24T04:54:23.793Z,15.90
2022-11-24T04:56:52.999Z,14.80
2022-11-24T04:59:21.245Z,13.07
2022-11-24T05:01:49.397Z,13.25
2022-11-24T05:04:19.544Z,13.75
2022-11-24T05:06:47.864Z,14.45
2022-11-24T05:09:17.444Z,14.75
2022-11-24T05:11:48.951Z,15.85
2022-11-24T05:14:17.815Z,13.70
2022-11-24T05:16:56.646Z,15.43
2022-11-24T05:19:31.232Z,16.50
2022-11-24T05:22:09.865Z,12.90
2022-11-24T05:24:38.644Z,14.60
2022-11-24T05:27:06.618Z,15.18
2022-11-24T05:29:34.540Z,15.32
2022-11-24T05:32:02.435Z,13.60
2022-11-24T05:34:33.761Z,11.93
2022-11-24T05:37:03.961Z,13.02
2022-11-24T05:39:33.635Z,14.27
2022-11-24T05:42:26.164Z,14.65
2022-11-24T05:44:54.438Z,12.90
2022-11-24T05:47:22.291Z,12.45
2022-11-24T05:49:50.085Z,13.85
2022-11-24T05:52:18.087Z,17.30
2022-11-24T05:54:45.979Z,18.48
2022-11-24T05:57:14.875Z,19.70
2022-11-24T05:59:50.693Z,15.68
2022-11-24T06:02:42.608Z,16.42
2022-11-24T06:05:10.484Z,15.13
2022-11-24T06:58:45.414Z,32.83
2022-11-24T07:01:17.788Z,30.35
2022-11-24T07:03:46.137Z,36.90
2022-11-24T07:06:13.911Z,30.38
2022-11-24T07:08:41.638Z,31.20
2022-11-24T07:11:12.111Z,27.20
2022-11-24T07:13:39.813Z,28.88
2022-11-24T07:16:15.872Z,25.67
2022-11-24T07:18:44.879Z,27.05
2022-11-24T07:21:13.168Z,28.67
2022-11-24T07:23:41.200Z,23.17
2022-11-24T07:26:10.155Z,23.50
2022-11-24T08:26:50.583Z,18.55
2022-11-24T08:29:18.507Z,13.82
2022-11-24T13:57:34.392Z,26.88
2022-11-24T14:00:04.725Z,26.77
2022-11-24T14:02:34.880Z,22.40
2022-11-24T14:05:03.099Z,23.88
2022-11-24T14:07:31.995Z,23.13
2022-11-24T14:09:59.856Z,28.55
2022-11-24T14:12:31.617Z,33.25
2022-11-24T14:15:22.636Z,40.78
2022-11-24T14:17:50.296Z,41.72
2022-11-24T14:20:24.794Z,33.35
2022-11-24T14:22:52.712Z,38.38
2022-11-24T14:25:32.244Z,36.58
2022-11-24T14:28:00.770Z,31.88
2022-11-24T14:30:28.665Z,35.83
2022-11-24T14:33:02.381Z,30.38
2022-11-24T14:35:44.318Z,30.38
2022-11-24T14:38:13.552Z,31.77
2022-11-24T14:40:46.575Z,32.70
2022-11-24T14:43:24.376Z,29.33
2022-11-24T14:46:09.469Z,26.45
2022-11-24T14:48:39.381Z,29.13
2022-11-24T14:51:24.109Z,28.08
2022-11-24T14:53:54.685Z,31.70
2022-11-24T14:56:27.357Z,37.28
2022-11-24T14:58:56.577Z,39.65
2022-11-24T15:01:27.408Z,49.58
2022-11-24T15:07:24.195Z,50.35
2022-11-24T15:10:02.841Z,44.83
2022-11-24T15:12:42.407Z,44.72
2022-11-24T15:15:20.270Z,39.55
2022-11-24T15:17:54.627Z,40.97
2022-11-24T15:20:35.663Z,42.45
2022-11-24T15:23:23.410Z,37.55
2022-11-24T15:25:56.045Z,38.97
2022-11-24T15:28:27.620Z,40.13
2022-11-24T15:31:00.103Z,47.50
2022-11-24T15:33:28.467Z,47.40
2022-11-24T15:35:57.074Z,44.40
2022-11-24T15:38:24.728Z,49.15
2022-11-24T15:40:54.547Z,46.85
2022-11-24T15:43:28.414Z,48.97
2022-11-24T15:45:56.559Z,40.22
2022-11-24T15:48:24.763Z,41.50
2022-11-24T15:50:53.864Z,39.10
2022-11-24T15:53:30.693Z,39.03
2022-11-24T15:55:59.396Z,41.58
2022-11-24T15:58:29.579Z,40.75
2022-11-24T16:01:00.171Z,45.28
2022-11-24T16:06:24.160Z,41.38
2022-11-24T16:08:53.867Z,38.17
2022-11-24T16:11:22.544Z,38.13
2022-11-24T16:13:53.452Z,40.35
2022-11-24T16:16:23.682Z,36.40
2022-11-24T16:18:51.525Z,38.33
2022-11-24T16:21:19.260Z,37.83
2022-11-24T16:23:47.961Z,38.95
2022-11-24T16:26:15.658Z,39.05
2022-11-24T16:28:45.412Z,36.75
2022-11-24T16:31:16.307Z,34.92
2022-11-24T16:33:46.622Z,37.00
2022-11-24T16:36:14.774Z,35.20
2022-11-24T16:38:42.523Z,40.90
2022-11-24T16:41:10.554Z,35.90
2022-11-24T16:43:38.896Z,38.58
2022-11-24T16:46:18.736Z,37.47
2022-11-24T16:48:48.254Z,36.58
2022-11-24T16:51:17.572Z,37.03
2022-11-24T16:53:45.543Z,42.80
2022-11-24T16:56:14.869Z,34.65
2022-11-24T16:58:42.686Z,36.00
2022-11-24T17:01:12.742Z,40.15
2022-11-24T17:03:41.010Z,37.33
2022-11-24T17:06:11.762Z,34.33
2022-11-24T17:08:40.974Z,31.38
2022-11-24T17:11:20.081Z,36.22
2022-11-24T17:13:49.341Z,31.25
2022-11-24T17:16:21.445Z,34.00
2022-11-24T17:18:50.027Z,52.03
2022-11-24T17:21:20.391Z,47.28
2022-11-24T17:23:48.497Z,46.25
2022-11-24T17:26:17.705Z,49.30
2022-11-24T17:28:45.676Z,47.38
2022-11-24T17:31:26.805Z,48.30
2022-11-24T17:33:57.007Z,40.67
2022-11-24T17:36:25.822Z,43.85
2022-11-24T17:38:53.713Z,43.25
2022-11-24T17:41:24.133Z,42.67
2022-11-24T17:43:56.845Z,38.90
2022-11-24T17:46:26.631Z,44.40
2022-11-24T17:48:55.787Z,38.25
2022-11-24T17:51:26.237Z,42.08
2022-11-24T17:53:55.101Z,37.85
2022-11-24T17:56:25.329Z,32.28
2022-11-24T17:58:58.011Z,44.63
2022-11-24T18:01:28.742Z,31.58
2022-11-24T18:03:56.650Z,34.00
2022-11-24T18:06:31.401Z,33.53
2022-11-24T18:08:59.789Z,31.95
2022-11-24T18:11:31.741Z,35.30
2022-11-24T18:14:03.130Z,35.83
2022-11-24T18:16:33.046Z,32.63
2022-11-24T18:19:11.646Z,37.28
2022-11-24T18:21:41.049Z,28.33
2022-11-24T18:24:10.503Z,35.03
2022-11-24T18:26:39.555Z,32.58
2022-11-24T18:29:08.145Z,31.02
2022-11-24T18:31:36.655Z,26.35
2022-11-24T18:34:09.047Z,29.15
2022-11-24T18:36:36.919Z,28.02
2022-11-24T18:39:10.693Z,25.40
2022-11-24T18:41:39.945Z,31.67
2022-11-24T18:44:11.176Z,31.48
2022-11-24T18:46:39.516Z,30.88
2022-11-24T18:49:15.693Z,24.35
2022-11-24T18:51:44.304Z,25.88
2022-11-24T18:54:12.596Z,27.23
2022-11-24T18:56:40.292Z,26.25
2022-11-24T18:59:08.121Z,26.63
2022-11-24T19:01:36.038Z,24.95
2022-11-24T19:04:05.166Z,24.48
2022-11-24T19:06:35.643Z,24.13
2022-11-24T19:09:09.271Z,23.58
2022-11-24T19:11:44.416Z,22.98
2022-11-24T19:14:15.947Z,25.15
2022-11-24T19:16:45.027Z,21.35
2022-11-24T19:19:13.355Z,20.60
2022-11-24T19:21:41.444Z,22.23
2022-11-24T19:24:10.491Z,22.50
2022-11-24T19:26:39.132Z,19.88
2022-11-24T19:29:07.791Z,22.85
2022-11-24T19:31:36.736Z,21.40
2022-11-24T19:34:06.494Z,21.85
2022-11-24T19:36:34.698Z,23.00
2022-11-24T19:39:05.187Z,21.60
2022-11-24T19:41:35.110Z,21.08
2022-11-24T19:44:06.275Z,25.98
2022-11-24T19:46:34.141Z,21.08
2022-11-24T19:49:02.797Z,21.17
2022-11-24T19:51:34.241Z,24.75
2022-11-24T19:54:02.390Z,22.83
2022-11-24T19:56:32.783Z,20.67
2022-11-24T19:59:00.986Z,21.95
2022-11-24T20:01:31.386Z,23.80
2022-11-24T20:04:04.984Z,22.30
2022-11-24T20:06:36.920Z,27.25
2022-11-24T20:09:07.112Z,23.27
2022-11-24T20:11:39.115Z,22.73
2022-11-24T20:14:08.333Z,22.23
2022-11-24T20:16:36.118Z,24.63
2022-11-24T20:19:07.426Z,21.83
2022-11-24T20:21:37.255Z,22.60
2022-11-24T20:24:08.377Z,25.85
2022-11-24T20:26:39.538Z,25.52
2022-11-24T20:29:10.144Z,25.67
2022-11-24T20:31:40.583Z,22.88
2022-11-24T20:34:08.979Z,24.58
2022-11-24T20:36:39.287Z,25.63
2022-11-24T20:39:10.373Z,21.50
2022-11-24T20:41:42.195Z,23.90
2022-11-24T20:44:14.139Z,21.98
2022-11-24T20:46:43.286Z,22.02
2022-11-24T20:49:16.849Z,27.08
2022-11-24T20:51:47.270Z,20.02
2022-11-24T20:54:17.103Z,22.75
2022-11-24T20:56:46.787Z,22.75
2022-11-24T20:59:17.734Z,20.95
2022-11-24T21:01:47.065Z,23.00
2022-11-24T21:04:21.656Z,23.55
2022-11-24T21:06:50.136Z,21.48
2022-11-24T21:09:20.161Z,22.25
2022-11-24T21:11:48.263Z,22.70
2022-11-24T21:14:16.076Z,22.90
2022-11-24T21:16:45.159Z,22.50
2022-11-24T21:19:15.222Z,22.92
2022-11-24T21:21:43.265Z,20.73
2022-11-24T21:24:15.025Z,20.27
2022-11-24T21:26:44.280Z,22.33
2022-11-24T21:29:14.122Z,22.63
2022-11-24T21:31:42.277Z,19.88
2022-11-24T21:34:13.788Z,20.83
2022-11-24T21:36:44.965Z,19.55
2022-11-24T21:39:14.408Z,21.85
2022-11-24T21:41:42.912Z,19.42
2022-11-24T21:44:14.433Z,16.90
2022-11-24T21:46:48.326Z,19.90
2022-11-24T21:49:18.727Z,21.83
2022-11-24T21:51:46.430Z,19.77
2022-11-24T21:54:14.181Z,18.30
2022-11-24T21:56:41.785Z,19.20
2022-11-24T21:59:09.407Z,20.08
2022-11-24T22:01:37.061Z,18.63
2022-11-24T22:04:05.028Z,21.42
2022-11-24T22:06:33.488Z,20.67
2022-11-24T22:09:01.162Z,20.00
2022-11-24T22:11:28.811Z,19.40
2022-11-24T22:13:56.421Z,20.38
2022-11-24T22:16:25.959Z,20.23
2022-11-24T22:18:53.734Z,20.70
2022-11-24T22:21:30.822Z,22.88
2022-11-24T22:23:58.528Z,18.10
2022-11-24T22:26:27.239Z,20.00
2022-11-24T22:28:56.244Z,22.05
2022-11-24T22:31:26.668Z,19.33
2022-11-24T22:33:55.408Z,19.65
2022-11-24T22:36:25.271Z,17.33
2022-11-24T22:38:56.945Z,18.30
2022-11-24T22:41:25.188Z,19.17
2022-11-24T22:43:53.704Z,18.67
2022-11-24T22:46:27.366Z,17.50
2022-11-24T22:48:57.971Z,18.27
2022-11-24T22:51:28.232Z,16.92
2022-11-24T22:53:58.027Z,18.45
2022-11-24T22:56:28.107Z,18.23
2022-11-24T22:58:56.005Z,18.60
2022-11-24T23:01:25.658Z,17.95
2022-11-24T23:03:54.674Z,16.25
2022-11-24T23:06:27.846Z,16.90
2022-11-24T23:08:57.025Z,18.00
2022-11-24T23:11:32.671Z,18.60
2022-11-24T23:14:02.772Z,16.33
2022-11-24T23:16:30.848Z,15.18
2022-11-24T23:18:58.982Z,17.75
2022-11-24T23:21:32.169Z,16.55
2022-11-24T23:24:01.674Z,16.00
2022-11-24T23:26:32.231Z,17.73
2022-11-24T23:29:00.165Z,18.45
2022-11-24T23:31:29.172Z,18.05
2022-11-24T23:34:02.332Z,18.77
2022-11-24T23:36:30.851Z,15.57
2022-11-24T23:39:04.309Z,17.33
2022-11-24T23:41:32.334Z,16.35
2022-11-24T23:44:00.300Z,15.57
2022-11-24T23:46:28.949Z,18.23
2022-11-24T23:48:56.955Z,16.70
2022-11-24T23:51:27.109Z,16.17
2022-11-24T23:53:55.096Z,15.95
2022-11-24T23:56:25.293Z,18.55
2022-11-24T23:58:53.270Z,13.20
